Terminal Aerodrome Forecast
Issued by NWS Upton, NY

Current Version | Previous Version | Text Only | Print | Product List | Glossary On
Versions: 1 2 3 4 5 6 7 8 9 10 11 12 13 14 15 16 17 18 19 20 21 22 23 24 25 26 27 28 29 30 31 32 33 34 35
245
FTUS41 KOKX 060533
TAFJFK
TAF
KJFK 060533Z 0606/0712 03012G18KT P6SM -RA OVC015
     FM060800 04012G19KT 5SM -RA BR SCT005 OVC009
     FM061200 05014G20KT 3SM RA BR OVC008
     FM061800 07018G24KT 1SM -RA BR OVC005
     FM070000 08011KT 3/4SM -DZ BR OVC004
     FM070600 08006KT 3/4SM -DZ BR OVC004=

USA.gov is the U.S. government's official web portal to all federal, state and local government web resources and services.